Time;durP1;ratioP1;P1;durP2;ratioP2;P2;SDS_P1;SDS_P2;PMS_P1;PMS_P2;Temp;Humidity;BMP_temperature;BMP_pressure;BME280_temperature;BME280_humidity;BME280_pressure;Samples;Min_cycle;Max_cycle;Signal;HPM_P1;HPM_P2
2022/10/10 00:00:27;;;;;;;27.80;16.88;;;10.00;99.90;;;;;;5002709;28;20234;-75
2022/10/10 00:03:17;;;;;;;27.10;18.20;;;9.90;99.90;;;;;;5014582;28;20257;-74
2022/10/10 00:06:06;;;;;;;31.45;17.75;;;9.90;99.90;;;;;;5029604;28;20214;-75
2022/10/10 00:08:56;;;;;;;30.40;18.00;;;9.80;99.90;;;;;;5017947;28;20249;-74
2022/10/10 00:11:45;;;;;;;28.33;18.17;;;9.70;99.90;;;;;;5018228;28;20229;-76
2022/10/10 00:14:34;;;;;;;28.17;18.40;;;9.60;99.90;;;;;;5018870;28;20221;-75
2022/10/10 00:17:22;;;;;;;30.73;17.83;;;9.60;99.90;;;;;;5001748;28;20232;-74
2022/10/10 00:20:12;;;;;;;28.30;17.35;;;9.70;99.90;;;;;;5015425;28;20232;-74
2022/10/10 00:23:00;;;;;;;29.67;17.92;;;9.70;99.90;;;;;;5019148;28;20240;-75
2022/10/10 00:25:51;;;;;;;28.17;18.63;;;9.70;99.90;;;;;;5016883;28;20301;-75
2022/10/10 00:28:39;;;;;;;28.42;17.92;;;9.70;99.90;;;;;;5020683;28;20300;-75
2022/10/10 00:31:28;;;;;;;27.05;17.90;;;9.70;99.90;;;;;;5031113;28;20226;-74
2022/10/10 00:34:17;;;;;;;30.58;18.52;;;9.70;99.90;;;;;;5024692;28;20476;-75
2022/10/10 00:37:06;;;;;;;32.10;18.55;;;9.60;99.90;;;;;;5015981;28;20232;-75
2022/10/10 00:39:54;;;;;;;32.42;18.20;;;9.60;99.90;;;;;;5027837;28;20245;-74
2022/10/10 00:42:44;;;;;;;28.48;18.08;;;9.60;99.90;;;;;;5019409;28;20244;-75
2022/10/10 00:45:38;;;;;;;27.92;18.75;;;9.60;99.90;;;;;;5034413;28;20229;-74
2022/10/10 00:48:31;;;;;;;33.53;19.40;;;9.70;99.90;;;;;;5017389;28;20229;-74
2022/10/10 00:51:20;;;;;;;31.88;19.98;;;9.70;99.90;;;;;;5016549;28;20217;-74
2022/10/10 00:54:11;;;;;;;28.35;18.58;;;9.60;99.90;;;;;;5020924;28;20307;-74
2022/10/10 00:57:05;;;;;;;30.20;18.35;;;9.50;99.90;;;;;;5027135;28;20232;-74
2022/10/10 00:59:56;;;;;;;27.33;18.15;;;9.50;99.90;;;;;;5010928;28;20252;-75
2022/10/10 01:02:45;;;;;;;27.75;18.40;;;9.40;99.90;;;;;;5012384;28;20312;-75
2022/10/10 01:05:34;;;;;;;30.55;18.10;;;9.40;99.90;;;;;;5014013;28;20246;-75
2022/10/10 01:08:23;;;;;;;27.33;18.45;;;9.40;99.90;;;;;;5011535;28;20313;-75
2022/10/10 01:11:26;;;;;;;29.13;18.45;;;9.50;99.90;;;;;;5000963;28;20720;-75
2022/10/10 01:14:35;;;;;;;29.77;19.45;;;9.40;99.90;;;;;;4998829;28;20213;-74
2022/10/10 01:17:30;;;;;;;28.77;18.38;;;9.50;99.90;;;;;;5013194;28;20225;-75
2022/10/10 01:20:35;;;;;;;30.15;19.10;;;9.20;99.90;;;;;;5009546;28;20297;-74
2022/10/10 01:24:01;;;;;;;31.00;20.35;;;9.20;99.90;;;;;;5018661;28;20213;-75
2022/10/10 01:27:21;;;;;;;31.80;20.55;;;9.30;99.90;;;;;;5012843;28;20324;-75
2022/10/10 01:30:21;;;;;;;33.65;20.45;;;9.20;99.90;;;;;;5019820;28;20248;-74
2022/10/10 01:33:15;;;;;;;32.30;20.10;;;9.20;99.90;;;;;;5018998;28;20274;-75
2022/10/10 01:36:13;;;;;;;34.25;20.73;;;9.20;99.90;;;;;;5002757;28;20739;-74
2022/10/10 01:39:09;;;;;;;30.92;20.27;;;9.00;99.90;;;;;;5030257;28;20311;-75
2022/10/10 01:42:03;;;;;;;32.03;21.55;;;9.00;99.90;;;;;;5025160;28;20254;-75
2022/10/10 01:44:52;;;;;;;37.08;23.17;;;8.90;99.90;;;;;;5015125;28;20221;-76
2022/10/10 01:47:43;;;;;;;29.85;21.17;;;8.90;99.90;;;;;;5012673;28;20281;-75
2022/10/10 01:50:36;;;;;;;29.15;20.05;;;9.00;99.90;;;;;;5013489;28;20266;-75
2022/10/10 01:53:32;;;;;;;28.80;21.20;;;8.90;99.90;;;;;;5015225;28;20728;-75
2022/10/10 01:56:33;;;;;;;30.88;22.13;;;8.90;99.90;;;;;;5018372;28;20214;-76
2022/10/10 01:59:34;;;;;;;32.90;20.90;;;8.80;99.90;;;;;;5008430;28;20218;-75
2022/10/10 02:02:32;;;;;;;29.50;20.65;;;8.70;99.90;;;;;;5013554;28;20662;-76
2022/10/10 02:05:28;;;;;;;36.20;21.80;;;8.70;99.90;;;;;;5012115;28;20243;-75
2022/10/10 02:08:21;;;;;;;34.90;21.65;;;8.40;99.90;;;;;;5016648;28;20311;-76
2022/10/10 02:11:12;;;;;;;33.78;22.27;;;8.40;99.90;;;;;;5013135;28;20629;-75
2022/10/10 02:14:05;;;;;;;33.40;21.23;;;8.30;99.90;;;;;;4999514;28;20241;-75
2022/10/10 02:16:55;;;;;;;33.17;22.00;;;8.40;99.90;;;;;;5019966;28;20644;-76
2022/10/10 02:19:49;;;;;;;32.70;21.00;;;8.50;99.90;;;;;;5011198;28;20229;-75
2022/10/10 02:22:40;;;;;;;33.80;21.63;;;8.60;99.90;;;;;;4994409;28;20228;-76
2022/10/10 02:25:35;;;;;;;33.90;21.63;;;8.60;99.90;;;;;;5010105;28;20226;-75
2022/10/10 02:28:29;;;;;;;34.28;22.35;;;8.50;99.90;;;;;;5006763;28;20241;-77
2022/10/10 02:31:25;;;;;;;35.83;21.38;;;8.50;99.90;;;;;;5010736;28;20230;-76
2022/10/10 02:34:18;;;;;;;35.20;21.73;;;8.60;99.90;;;;;;5021170;28;20260;-76
2022/10/10 02:37:12;;;;;;;31.38;21.23;;;8.50;99.90;;;;;;5006220;28;20696;-76
2022/10/10 02:40:04;;;;;;;31.87;21.57;;;8.50;99.90;;;;;;5001256;28;20225;-77
2022/10/10 02:42:53;;;;;;;28.97;19.90;;;8.50;99.90;;;;;;5008000;28;20248;-75
2022/10/10 02:45:42;;;;;;;32.10;20.10;;;8.50;99.90;;;;;;5019816;28;20696;-75
2022/10/10 02:48:31;;;;;;;31.03;20.57;;;8.30;99.90;;;;;;5010894;28;20262;-73
2022/10/10 02:51:20;;;;;;;30.67;20.23;;;8.30;99.90;;;;;;5006244;28;20220;-75
2022/10/10 02:54:09;;;;;;;28.70;20.33;;;8.20;99.90;;;;;;5007533;28;20309;-75
2022/10/10 02:56:59;;;;;;;31.97;20.83;;;8.30;99.90;;;;;;5009835;28;20766;-74
2022/10/10 02:59:47;;;;;;;31.93;20.10;;;8.50;99.90;;;;;;5008092;28;20237;-75
2022/10/10 03:02:36;;;;;;;29.58;21.08;;;8.50;99.90;;;;;;5004653;28;20242;-75
2022/10/10 03:05:25;;;;;;;31.07;20.30;;;8.50;99.90;;;;;;5010835;28;21375;-74
2022/10/10 03:08:13;;;;;;;27.83;20.03;;;8.40;99.90;;;;;;5007359;28;20308;-75
2022/10/10 03:11:02;;;;;;;28.15;20.08;;;8.30;99.90;;;;;;5009704;28;20234;-75
2022/10/10 03:13:52;;;;;;;28.83;19.77;;;8.40;99.90;;;;;;5020648;28;20254;-74
2022/10/10 03:16:41;;;;;;;27.45;19.77;;;8.10;99.90;;;;;;5010162;28;20643;-75
2022/10/10 03:19:30;;;;;;;27.63;20.27;;;8.10;99.90;;;;;;5006323;28;20399;-75
2022/10/10 03:22:18;;;;;;;32.33;21.33;;;8.00;99.90;;;;;;5009204;28;20867;-74
2022/10/10 03:25:07;;;;;;;30.77;20.63;;;7.90;99.90;;;;;;5007282;28;20867;-75
2022/10/10 03:27:56;;;;;;;29.97;19.70;;;7.80;99.90;;;;;;5009171;28;20220;-75
2022/10/10 03:30:46;;;;;;;28.23;19.27;;;7.90;99.90;;;;;;4996977;28;20586;-75
2022/10/10 03:33:35;;;;;;;29.27;19.67;;;7.80;99.90;;;;;;5008136;28;20724;-75
2022/10/10 03:36:24;;;;;;;26.83;17.57;;;7.70;99.90;;;;;;5008020;28;20230;-76
2022/10/10 03:39:12;;;;;;;25.33;17.80;;;7.70;99.90;;;;;;5010752;28;20217;-75
2022/10/10 03:42:01;;;;;;;30.67;18.67;;;7.50;99.90;;;;;;5009306;28;20233;-75
2022/10/10 03:44:50;;;;;;;26.57;17.80;;;7.20;99.90;;;;;;5008239;28;20850;-75
2022/10/10 03:47:40;;;;;;;24.37;17.83;;;7.20;99.90;;;;;;5009212;28;20221;-76
2022/10/10 03:50:29;;;;;;;25.40;17.90;;;7.10;99.90;;;;;;5010426;28;20233;-75
2022/10/10 03:53:18;;;;;;;28.60;17.73;;;7.20;99.90;;;;;;5007864;28;20224;-76
2022/10/10 03:56:06;;;;;;;24.60;17.73;;;7.30;99.90;;;;;;4997272;28;20233;-76
2022/10/10 03:58:59;;;;;;;24.97;17.50;;;7.20;99.90;;;;;;5006545;28;20237;-77
2022/10/10 04:01:48;;;;;;;25.93;17.93;;;7.00;99.90;;;;;;4998539;28;20244;-76
2022/10/10 04:04:38;;;;;;;24.13;17.37;;;7.00;99.90;;;;;;5009544;28;20250;-76
2022/10/10 04:07:27;;;;;;;22.87;16.57;;;7.30;99.90;;;;;;5014969;28;20243;-75
2022/10/10 04:10:15;;;;;;;23.97;17.13;;;7.10;99.90;;;;;;5017156;28;20221;-76
2022/10/10 04:13:04;;;;;;;22.93;16.80;;;7.10;99.90;;;;;;5006166;28;20220;-76
2022/10/10 04:15:54;;;;;;;24.23;16.27;;;6.90;99.90;;;;;;5006748;28;20779;-76
2022/10/10 04:18:42;;;;;;;23.73;16.83;;;7.00;99.90;;;;;;5002420;28;20312;-76
2022/10/10 04:21:32;;;;;;;24.13;16.43;;;7.00;99.90;;;;;;5014144;28;20319;-76
2022/10/10 04:24:21;;;;;;;23.90;15.73;;;7.10;99.90;;;;;;5015013;28;20442;-75
2022/10/10 04:27:10;;;;;;;22.70;16.40;;;7.30;99.90;;;;;;5019292;28;20374;-75
2022/10/10 04:29:59;;;;;;;25.10;15.90;;;7.20;99.90;;;;;;5006201;28;20226;-76
2022/10/10 04:32:48;;;;;;;21.70;15.03;;;7.30;99.90;;;;;;5012943;28;20245;-75
2022/10/10 04:35:37;;;;;;;25.50;15.80;;;7.30;99.90;;;;;;5013844;28;20237;-75
2022/10/10 04:38:28;;;;;;;21.00;15.03;;;7.40;99.90;;;;;;5016689;28;20239;-75
2022/10/10 04:41:16;;;;;;;19.10;14.73;;;7.50;99.90;;;;;;5013483;28;20220;-75
2022/10/10 04:44:05;;;;;;;23.07;15.20;;;7.40;99.90;;;;;;5015677;28;20786;-74
2022/10/10 04:46:54;;;;;;;21.13;14.70;;;7.30;99.90;;;;;;5019907;28;20237;-75
2022/10/10 04:49:42;;;;;;;23.40;15.57;;;7.30;99.90;;;;;;5016298;28;20306;-75
2022/10/10 04:52:31;;;;;;;22.73;15.40;;;7.30;99.90;;;;;;5003681;28;20769;-75
2022/10/10 04:55:21;;;;;;;21.60;14.87;;;7.10;99.90;;;;;;5015939;28;20241;-74
2022/10/10 04:58:09;;;;;;;26.27;15.50;;;6.80;99.90;;;;;;5004451;28;20229;-75
2022/10/10 05:00:58;;;;;;;25.00;16.10;;;6.70;99.90;;;;;;5011442;28;20737;-75
2022/10/10 05:03:47;;;;;;;22.17;16.60;;;6.80;99.90;;;;;;5007647;28;20240;-74
2022/10/10 05:06:35;;;;;;;28.33;15.83;;;7.10;99.90;;;;;;5014072;28;20774;-75
2022/10/10 05:09:24;;;;;;;23.93;16.17;;;7.20;99.90;;;;;;5010316;28;20263;-75
2022/10/10 05:12:14;;;;;;;24.00;16.00;;;7.20;99.90;;;;;;5016479;28;20775;-75
2022/10/10 05:15:03;;;;;;;22.33;15.33;;;7.30;99.90;;;;;;5015369;28;20243;-75
2022/10/10 05:17:52;;;;;;;22.57;14.83;;;7.10;99.90;;;;;;5011794;28;20261;-75
2022/10/10 05:20:42;;;;;;;19.60;14.90;;;7.10;99.90;;;;;;4999791;28;20222;-75
2022/10/10 05:23:31;;;;;;;22.40;15.80;;;7.30;99.90;;;;;;5014174;28;20238;-75
2022/10/10 05:26:20;;;;;;;21.37;15.30;;;7.20;99.90;;;;;;5015571;28;20224;-76
2022/10/10 05:29:10;;;;;;;23.97;14.77;;;7.20;99.90;;;;;;5011684;28;20225;-74
2022/10/10 05:31:59;;;;;;;25.70;16.10;;;7.20;99.90;;;;;;5011797;28;20226;-74
2022/10/10 05:34:47;;;;;;;23.93;15.10;;;7.40;99.90;;;;;;5011185;28;20230;-76
2022/10/10 05:37:36;;;;;;;25.77;15.03;;;7.20;99.90;;;;;;5017107;28;20257;-74
2022/10/10 05:40:25;;;;;;;25.03;15.10;;;7.10;99.90;;;;;;5013273;28;20233;-74
2022/10/10 05:43:14;;;;;;;23.60;15.10;;;7.20;99.90;;;;;;5008098;28;20222;-74
2022/10/10 05:46:05;;;;;;;22.47;15.90;;;7.00;99.90;;;;;;5009645;28;20253;-76
2022/10/10 05:48:54;;;;;;;25.13;16.20;;;7.20;99.90;;;;;;5013777;28;20232;-76
2022/10/10 05:51:43;;;;;;;22.33;14.57;;;7.20;99.90;;;;;;5012751;28;20228;-75
2022/10/10 05:54:31;;;;;;;21.87;15.03;;;7.30;99.90;;;;;;5015312;28;20247;-74
2022/10/10 05:57:20;;;;;;;22.67;15.37;;;7.30;99.90;;;;;;5013314;28;20221;-74
2022/10/10 06:00:10;;;;;;;25.23;16.27;;;7.20;99.90;;;;;;5014907;28;20271;-76
2022/10/10 06:02:59;;;;;;;28.77;16.47;;;7.30;99.90;;;;;;5012382;28;20747;-75
2022/10/10 06:05:51;;;;;;;23.77;16.23;;;7.30;99.90;;;;;;5011346;28;20315;-75
2022/10/10 06:08:40;;;;;;;22.20;15.33;;;7.20;99.90;;;;;;5021845;28;20303;-74
2022/10/10 06:11:29;;;;;;;25.13;15.70;;;7.40;99.90;;;;;;5009254;28;20228;-76
2022/10/10 06:14:17;;;;;;;25.77;15.63;;;7.50;99.90;;;;;;4995570;28;20344;-75
2022/10/10 06:17:06;;;;;;;24.30;15.53;;;7.60;99.90;;;;;;4998785;28;20256;-75
2022/10/10 06:19:56;;;;;;;24.23;16.70;;;7.50;99.90;;;;;;5021179;28;20236;-74
2022/10/10 06:22:44;;;;;;;23.00;15.13;;;7.40;99.90;;;;;;4999677;28;20232;-75
2022/10/10 06:25:34;;;;;;;25.60;15.77;;;7.50;99.90;;;;;;5009639;28;20257;-76
2022/10/10 06:28:28;;;;;;;24.63;15.97;;;7.70;99.90;;;;;;5006532;28;20302;-76
2022/10/10 06:31:17;;;;;;;29.80;16.93;;;7.70;99.90;;;;;;5011542;28;20857;-77
2022/10/10 06:34:06;;;;;;;27.47;16.77;;;7.60;99.90;;;;;;5009111;28;20235;-76
2022/10/10 06:36:56;;;;;;;25.53;15.43;;;7.70;99.90;;;;;;5011517;28;20240;-77
2022/10/10 06:39:45;;;;;;;26.80;17.67;;;7.60;99.90;;;;;;5010812;28;20236;-77
2022/10/10 06:42:34;;;;;;;26.03;15.83;;;7.80;99.90;;;;;;5009634;28;20271;-76
2022/10/10 06:45:24;;;;;;;31.53;17.33;;;8.00;99.90;;;;;;4999519;28;20230;-76
2022/10/10 06:48:15;;;;;;;25.30;16.93;;;8.00;99.90;;;;;;5010983;28;20589;-75
2022/10/10 06:51:05;;;;;;;27.00;17.80;;;8.00;99.90;;;;;;5014647;28;20222;-75
2022/10/10 06:53:57;;;;;;;26.73;16.67;;;8.10;99.90;;;;;;5016398;28;20239;-76
2022/10/10 06:56:47;;;;;;;29.73;17.03;;;8.00;99.90;;;;;;5018576;28;20584;-76
2022/10/10 06:59:35;;;;;;;26.80;16.93;;;8.00;99.90;;;;;;5001786;28;20314;-76
2022/10/10 07:02:26;;;;;;;27.93;17.77;;;8.00;99.90;;;;;;5025370;28;20284;-76
2022/10/10 07:05:16;;;;;;;31.57;18.23;;;8.00;99.90;;;;;;5024725;28;20228;-77
2022/10/10 07:08:05;;;;;;;28.80;18.17;;;7.90;99.90;;;;;;5023969;28;20214;-77
2022/10/10 07:10:55;;;;;;;26.80;17.77;;;7.90;99.90;;;;;;5013259;28;20294;-76
2022/10/10 07:13:44;;;;;;;27.67;17.63;;;8.10;99.90;;;;;;5009811;28;20581;-76
2022/10/10 07:16:33;;;;;;;24.27;16.50;;;8.20;99.90;;;;;;5014319;28;20235;-78
2022/10/10 07:19:23;;;;;;;25.47;16.47;;;8.30;99.90;;;;;;5011113;28;20302;-76
2022/10/10 07:22:12;;;;;;;25.20;16.80;;;8.40;99.90;;;;;;4997727;28;20232;-77
2022/10/10 07:25:01;;;;;;;24.43;17.27;;;8.60;99.90;;;;;;5001930;28;20237;-78
2022/10/10 07:27:51;;;;;;;24.07;17.00;;;8.60;99.90;;;;;;5015199;28;20235;-77
2022/10/10 07:30:42;;;;;;;26.27;16.73;;;8.60;99.90;;;;;;5010415;28;20239;-76
2022/10/10 07:33:35;;;;;;;26.17;17.40;;;8.70;99.90;;;;;;5021321;28;20246;-76
2022/10/10 07:36:24;;;;;;;24.80;16.40;;;8.80;99.90;;;;;;5005720;28;20289;-75
2022/10/10 07:39:13;;;;;;;23.33;16.87;;;8.80;99.90;;;;;;5010076;28;20227;-76
2022/10/10 07:42:04;;;;;;;25.80;19.10;;;9.10;99.90;;;;;;5011239;28;20225;-76
2022/10/10 07:44:57;;;;;;;24.20;17.13;;;9.30;99.90;;;;;;5012475;28;20226;-76
2022/10/10 07:47:46;;;;;;;26.50;17.48;;;9.80;99.90;;;;;;5009564;28;20233;-76
2022/10/10 07:50:35;;;;;;;24.88;15.98;;;10.60;99.90;;;;;;5009633;28;20224;-76
2022/10/10 07:53:24;;;;;;;23.57;14.80;;;11.30;99.90;;;;;;5013041;28;20752;-75
2022/10/10 07:56:12;;;;;;;26.58;17.52;;;11.90;99.90;;;;;;5000987;28;20206;-76
2022/10/10 07:59:01;;;;;;;22.98;17.27;;;12.10;99.90;;;;;;5010173;28;20245;-76
2022/10/10 08:01:51;;;;;;;22.02;17.17;;;12.30;99.90;;;;;;5000723;28;20814;-76
2022/10/10 08:04:40;;;;;;;24.77;18.55;;;12.80;99.90;;;;;;4998571;28;20312;-75
2022/10/10 08:07:28;;;;;;;25.42;18.67;;;12.90;99.90;;;;;;5011474;28;20329;-76
2022/10/10 08:10:17;;;;;;;23.60;17.95;;;13.40;99.90;;;;;;5011072;28;20234;-76
2022/10/10 08:13:06;;;;;;;23.63;18.02;;;13.60;99.90;;;;;;5012114;28;20721;-77
2022/10/10 08:15:55;;;;;;;22.02;17.33;;;13.90;99.90;;;;;;4997387;28;20222;-76
2022/10/10 08:18:45;;;;;;;18.85;16.40;;;14.20;99.90;;;;;;5009140;28;20609;-75
2022/10/10 08:21:34;;;;;;;21.60;16.65;;;14.40;99.90;;;;;;5018265;28;20332;-78
2022/10/10 08:24:23;;;;;;;22.20;16.60;;;14.40;99.90;;;;;;5006668;28;20221;-78
2022/10/10 08:27:13;;;;;;;17.35;14.20;;;14.70;99.90;;;;;;5011645;28;20308;-75
2022/10/10 08:30:02;;;;;;;16.95;13.15;;;14.90;99.90;;;;;;5015463;28;20300;-75
2022/10/10 08:32:50;;;;;;;16.45;13.23;;;15.00;99.90;;;;;;5012085;28;20229;-75
2022/10/10 08:35:41;;;;;;;18.95;13.52;;;15.20;99.90;;;;;;5019880;28;20222;-75
2022/10/10 08:38:30;;;;;;;18.80;12.95;;;15.50;99.90;;;;;;5013816;28;20230;-75
2022/10/10 08:41:25;;;;;;;14.93;11.68;;;15.70;99.90;;;;;;5008684;28;20225;-76
2022/10/10 08:44:20;;;;;;;13.75;10.45;;;15.90;99.90;;;;;;5008645;28;20699;-76
2022/10/10 08:47:15;;;;;;;14.25;9.82;;;16.10;99.90;;;;;;5017093;28;20222;-78
2022/10/10 08:50:07;;;;;;;16.15;9.80;;;15.50;99.90;;;;;;5015075;28;20232;-79
2022/10/10 08:53:01;;;;;;;13.80;10.68;;;15.00;99.90;;;;;;5022168;28;20747;-79
2022/10/10 08:55:52;;;;;;;17.50;10.55;;;14.30;99.90;;;;;;5013954;28;20237;-76
2022/10/10 08:58:44;;;;;;;12.80;9.68;;;13.90;99.90;;;;;;5011749;28;20626;-76
2022/10/10 09:01:35;;;;;;;11.23;9.10;;;13.70;99.90;;;;;;5014319;28;20878;-76
2022/10/10 09:04:43;;;;;;;13.50;9.38;;;13.30;99.90;;;;;;5014850;28;20233;-75
2022/10/10 09:07:45;;;;;;;15.25;8.95;;;13.30;99.90;;;;;;5013334;28;20706;-75
2022/10/10 09:10:44;;;;;;;12.55;8.65;;;13.20;99.90;;;;;;5012690;28;20220;-76
2022/10/10 09:13:36;;;;;;;15.10;8.90;;;13.00;99.90;;;;;;5014881;28;20229;-76
2022/10/10 09:16:36;;;;;;;10.00;8.48;;;13.10;99.90;;;;;;5010484;28;20339;-76
2022/10/10 09:19:35;;;;;;;13.77;8.52;;;13.00;99.90;;;;;;5005287;28;20695;-76
2022/10/10 09:22:28;;;;;;;12.00;8.57;;;12.90;99.90;;;;;;5004536;28;20740;-76
2022/10/10 09:25:22;;;;;;;13.57;8.43;;;12.90;99.90;;;;;;5018326;28;20592;-76
2022/10/10 09:28:16;;;;;;;11.02;7.68;;;12.90;99.90;;;;;;5000724;28;20225;-76
2022/10/10 09:31:11;;;;;;;10.98;8.45;;;13.00;99.90;;;;;;5016051;28;20247;-76
2022/10/10 09:34:04;;;;;;;10.98;8.00;;;13.10;99.90;;;;;;5016637;28;20228;-76
2022/10/10 09:36:54;;;;;;;10.50;7.80;;;13.00;99.90;;;;;;5005592;28;20229;-75
2022/10/10 09:39:52;;;;;;;11.77;8.30;;;13.10;99.90;;;;;;5009078;28;20226;-76
2022/10/10 09:42:44;;;;;;;12.45;7.70;;;13.10;99.90;;;;;;5003648;28;20236;-76
2022/10/10 09:45:39;;;;;;;13.23;8.00;;;13.10;99.90;;;;;;5008689;28;20222;-76
2022/10/10 09:48:31;;;;;;;10.27;7.60;;;13.00;99.90;;;;;;5012074;28;20284;-76
2022/10/10 09:51:21;;;;;;;11.00;7.22;;;13.10;99.90;;;;;;5008826;28;20222;-76
2022/10/10 09:54:10;;;;;;;9.40;6.80;;;13.20;99.90;;;;;;5012125;28;20222;-76
2022/10/10 09:56:59;;;;;;;8.30;6.72;;;13.10;99.90;;;;;;5013838;28;20320;-76
2022/10/10 09:59:48;;;;;;;11.23;7.13;;;13.10;99.90;;;;;;5015508;28;20253;-76
2022/10/10 10:02:38;;;;;;;9.90;6.28;;;13.20;99.90;;;;;;5001370;28;20221;-74
2022/10/10 10:05:28;;;;;;;9.63;5.82;;;13.20;99.90;;;;;;5013393;28;20660;-75
2022/10/10 10:08:20;;;;;;;13.57;6.18;;;13.30;99.90;;;;;;5011094;28;20222;-75
2022/10/10 10:11:27;;;;;;;7.63;5.30;;;13.30;99.90;;;;;;5016980;28;20368;-76
2022/10/10 10:14:37;;;;;;;7.70;5.13;;;13.40;99.90;;;;;;5017676;28;21024;-76
2022/10/10 10:17:25;;;;;;;5.70;4.70;;;13.50;99.90;;;;;;5014488;28;20794;-76
2022/10/10 10:20:35;;;;;;;6.03;4.10;;;13.50;99.90;;;;;;5008577;28;20784;-76
2022/10/10 10:23:26;;;;;;;4.63;3.63;;;13.60;99.90;;;;;;5000606;28;20221;-75
2022/10/10 10:26:18;;;;;;;4.38;3.70;;;13.60;99.90;;;;;;5028195;28;20221;-75
2022/10/10 10:29:27;;;;;;;4.72;3.20;;;13.60;99.90;;;;;;5005403;28;20294;-76
2022/10/10 10:32:25;;;;;;;5.63;3.60;;;13.60;99.90;;;;;;5010896;28;20736;-76
2022/10/10 10:35:23;;;;;;;7.32;3.40;;;13.70;99.90;;;;;;5010064;28;20225;-76
2022/10/10 10:38:27;;;;;;;6.82;5.07;;;13.80;99.90;;;;;;5009025;28;20245;-76
2022/10/10 10:41:25;;;;;;;6.63;4.75;;;13.70;99.90;;;;;;5006446;28;20228;-76
2022/10/10 10:44:29;;;;;;;8.25;4.78;;;13.70;99.90;;;;;;5010562;28;20303;-77
2022/10/10 10:47:35;;;;;;;9.52;5.68;;;13.80;99.90;;;;;;5009487;28;20896;-76
2022/10/10 10:50:42;;;;;;;8.48;4.40;;;13.70;99.90;;;;;;5009779;28;20260;-76
2022/10/10 10:53:40;;;;;;;6.30;3.85;;;13.80;99.90;;;;;;5014260;28;20220;-76
2022/10/10 10:56:35;;;;;;;6.95;4.75;;;13.80;99.90;;;;;;4997316;28;20601;-75
2022/10/10 10:59:35;;;;;;;7.65;5.20;;;13.90;99.90;;;;;;5011642;28;20232;-76
2022/10/10 11:02:58;;;;;;;9.35;4.95;;;14.00;99.90;;;;;;5007845;28;20214;-75
2022/10/10 11:06:22;;;;;;;5.80;4.65;;;13.90;99.90;;;;;;5008547;28;20716;-76
2022/10/10 11:09:16;;;;;;;7.60;4.05;;;13.90;99.90;;;;;;4995893;28;20604;-76
2022/10/10 11:12:41;;;;;;;7.45;4.85;;;14.00;99.90;;;;;;5010863;28;20319;-76
2022/10/10 11:15:36;;;;;;;5.80;4.28;;;14.00;99.90;;;;;;4999643;28;20384;-75
2022/10/10 11:19:01;;;;;;;6.72;3.92;;;14.00;99.90;;;;;;5002256;28;20232;-75
2022/10/10 11:21:55;;;;;;;7.55;3.40;;;14.00;99.90;;;;;;5012150;28;20217;-77
2022/10/10 11:24:50;;;;;;;5.03;3.17;;;14.20;99.90;;;;;;4998178;28;20225;-76
2022/10/10 11:27:45;;;;;;;5.00;3.25;;;14.30;99.90;;;;;;5002718;28;20221;-77
2022/10/10 11:30:39;;;;;;;4.65;2.83;;;14.30;99.90;;;;;;5003918;28;20217;-76
2022/10/10 11:33:33;;;;;;;4.13;2.88;;;14.30;99.90;;;;;;5011796;28;20704;-76
2022/10/10 11:36:24;;;;;;;7.15;2.97;;;14.30;99.90;;;;;;5011222;28;20225;-77
2022/10/10 11:39:16;;;;;;;6.20;2.67;;;14.30;99.90;;;;;;5012217;28;20226;-76
2022/10/10 11:42:14;;;;;;;4.28;3.00;;;14.30;99.90;;;;;;5008612;28;20213;-75
2022/10/10 11:45:08;;;;;;;6.38;3.25;;;14.30;99.90;;;;;;5018977;28;20229;-77
2022/10/10 11:48:03;;;;;;;6.13;2.85;;;14.30;99.90;;;;;;5038084;28;20315;-77
2022/10/10 11:50:56;;;;;;;3.78;2.60;;;14.30;99.90;;;;;;5019367;28;20245;-78
2022/10/10 11:53:49;;;;;;;3.92;2.78;;;14.30;99.90;;;;;;5018012;28;20236;-76
2022/10/10 11:56:42;;;;;;;7.30;3.33;;;14.30;99.90;;;;;;5012915;28;20219;-80
2022/10/10 11:59:38;;;;;;;5.15;3.20;;;14.40;99.90;;;;;;5012284;28;20221;-79
2022/10/10 12:02:32;;;;;;;4.50;3.00;;;14.40;99.90;;;;;;5016529;28;20241;-79
2022/10/10 12:05:23;;;;;;;4.13;2.80;;;14.40;99.90;;;;;;5017694;28;20217;-80
2022/10/10 12:08:18;;;;;;;4.53;2.78;;;14.40;99.90;;;;;;5014186;28;20253;-76
2022/10/10 12:11:17;;;;;;;6.07;3.17;;;14.40;99.90;;;;;;5013171;28;20233;-76
2022/10/10 12:14:09;;;;;;;6.10;3.20;;;14.50;99.90;;;;;;5014428;28;20308;-76
2022/10/10 12:17:00;;;;;;;6.22;3.20;;;14.50;99.90;;;;;;5012919;28;20697;-77
2022/10/10 12:19:51;;;;;;;4.75;3.30;;;14.50;99.90;;;;;;5014105;28;20234;-76
2022/10/10 12:22:40;;;;;;;5.40;3.22;;;14.50;99.90;;;;;;5026483;28;20221;-77
2022/10/10 12:25:40;;;;;;;6.60;3.10;;;14.50;99.90;;;;;;5010815;28;20221;-77
2022/10/10 12:28:35;;;;;;;5.55;3.05;;;14.50;99.90;;;;;;5023420;28;20324;-77
2022/10/10 12:31:29;;;;;;;6.70;3.63;;;14.50;99.90;;;;;;5016272;28;20220;-76
2022/10/10 12:34:41;;;;;;;5.10;3.50;;;14.60;99.90;;;;;;5020655;28;20216;-77
2022/10/10 12:37:31;;;;;;;5.20;3.35;;;14.50;99.90;;;;;;5032451;28;20665;-77
2022/10/10 12:40:22;;;;;;;6.45;3.40;;;14.50;99.90;;;;;;5007575;28;20245;-76
2022/10/10 12:43:36;;;;;;;4.90;3.15;;;14.60;99.90;;;;;;5018654;28;20573;-76
2022/10/10 12:46:30;;;;;;;5.57;3.80;;;14.60;99.90;;;;;;4999021;28;20309;-76
2022/10/10 12:49:22;;;;;;;3.67;2.67;;;14.60;99.90;;;;;;5018666;28;20224;-76
2022/10/10 12:52:13;;;;;;;5.82;3.42;;;14.60;99.90;;;;;;5012660;28;20253;-77
2022/10/10 12:55:06;;;;;;;4.63;3.08;;;14.70;99.90;;;;;;5031640;28;20299;-76
2022/10/10 12:57:57;;;;;;;7.38;2.90;;;14.70;99.90;;;;;;5014084;28;20228;-76
2022/10/10 13:00:47;;;;;;;4.05;2.95;;;14.60;99.90;;;;;;5014947;28;20336;-76
2022/10/10 13:03:39;;;;;;;4.47;3.03;;;14.70;99.90;;;;;;5010305;28;20308;-77
2022/10/10 13:06:35;;;;;;;11.07;3.13;;;14.70;99.90;;;;;;5015342;28;20252;-76
2022/10/10 13:09:26;;;;;;;5.65;3.00;;;14.70;99.90;;;;;;5012463;28;20325;-78
2022/10/10 13:12:25;;;;;;;4.78;2.45;;;14.70;99.90;;;;;;5019694;28;20597;-76
2022/10/10 13:15:21;;;;;;;5.13;2.20;;;14.70;99.90;;;;;;5016200;28;20295;-76
2022/10/10 13:18:09;;;;;;;4.63;2.75;;;14.80;99.90;;;;;;4997631;28;20226;-75
2022/10/10 13:20:58;;;;;;;3.90;2.30;;;14.80;99.90;;;;;;5016702;28;20236;-74
2022/10/10 13:23:50;;;;;;;3.97;2.50;;;14.80;99.90;;;;;;5012718;28;20229;-74
2022/10/10 13:27:00;;;;;;;5.57;2.17;;;14.80;99.90;;;;;;5014705;28;20301;-80
2022/10/10 13:29:49;;;;;;;2.42;2.22;;;14.80;99.90;;;;;;4991070;28;20238;-80
2022/10/10 13:32:38;;;;;;;7.80;2.50;;;14.80;99.90;;;;;;5014614;28;20260;-80
2022/10/10 13:35:31;;;;;;;4.40;2.70;;;14.90;99.90;;;;;;5019820;28;20277;-80
2022/10/10 13:38:25;;;;;;;5.63;2.38;;;14.90;99.90;;;;;;5023815;28;20221;-74
2022/10/10 13:41:17;;;;;;;3.88;2.20;;;14.80;99.90;;;;;;5013085;28;20222;-75
2022/10/10 13:44:13;;;;;;;4.18;2.78;;;14.90;99.90;;;;;;5019176;28;20340;-75
2022/10/10 13:47:35;;;;;;;4.15;2.30;;;14.90;99.90;;;;;;5022043;28;20253;-75
2022/10/10 13:50:30;;;;;;;5.80;2.88;;;14.90;99.90;;;;;;5012919;28;20303;-74
2022/10/10 13:53:33;;;;;;;3.90;2.47;;;14.90;99.90;;;;;;5013745;28;20715;-75
2022/10/10 13:56:26;;;;;;;3.10;2.10;;;14.90;99.90;;;;;;5004740;28;20221;-75
2022/10/10 13:59:15;;;;;;;3.17;2.10;;;14.90;99.90;;;;;;5011540;28;20252;-74
2022/10/10 14:02:08;;;;;;;3.75;1.98;;;14.90;99.90;;;;;;5010738;28;20269;-75
2022/10/10 14:04:58;;;;;;;3.55;2.30;;;14.90;99.90;;;;;;5009498;28;20214;-75
2022/10/10 14:07:48;;;;;;;7.38;2.40;;;14.90;99.90;;;;;;5009731;28;20230;-81
2022/10/10 14:10:37;;;;;;;8.45;2.72;;;14.90;99.90;;;;;;5007551;28;20505;-75
2022/10/10 14:13:30;;;;;;;5.43;2.45;;;14.90;99.90;;;;;;5026477;28;20340;-75
2022/10/10 14:16:25;;;;;;;5.40;2.00;;;14.90;99.90;;;;;;5016425;28;20775;-75
2022/10/10 14:19:17;;;;;;;3.63;2.00;;;14.90;99.90;;;;;;5011134;28;20672;-75
2022/10/10 14:22:06;;;;;;;2.72;1.75;;;14.90;99.90;;;;;;4998048;28;20218;-75
2022/10/10 14:24:55;;;;;;;3.55;2.20;;;14.90;99.90;;;;;;4992243;28;20662;-75
2022/10/10 14:27:43;;;;;;;5.60;1.90;;;14.90;99.90;;;;;;5021609;28;20340;-74
2022/10/10 14:30:34;;;;;;;4.60;2.13;;;14.90;99.90;;;;;;5007785;28;20233;-75
2022/10/10 14:33:23;;;;;;;5.43;2.03;;;14.90;99.90;;;;;;5015247;28;20225;-75
2022/10/10 14:36:13;;;;;;;3.08;1.95;;;14.80;99.90;;;;;;5013627;28;20688;-75
2022/10/10 14:39:01;;;;;;;4.97;1.88;;;14.80;99.90;;;;;;5009085;28;20229;-74
2022/10/10 14:41:51;;;;;;;5.90;1.80;;;14.90;99.90;;;;;;5015572;28;20217;-75
2022/10/10 14:44:39;;;;;;;4.80;2.15;;;14.80;99.90;;;;;;5012931;28;20222;-76
2022/10/10 14:47:29;;;;;;;5.85;2.20;;;14.80;99.90;;;;;;5010825;28;20328;-75